createdAt,value
2023-02-05T00:00:50.273Z,9.13
2023-02-05T00:03:17.994Z,12.20
2023-02-05T00:05:45.694Z,8.45
2023-02-05T00:08:13.378Z,11.05
2023-02-05T00:10:42.435Z,9.50
2023-02-05T00:13:10.212Z,9.75
2023-02-05T00:15:41.389Z,11.00
2023-02-05T00:18:09.046Z,10.50
2023-02-05T00:20:37.300Z,13.30
2023-02-05T00:23:04.991Z,10.85
2023-02-05T00:25:33.043Z,10.38
2023-02-05T00:28:02.420Z,12.43
2023-02-05T00:30:30.334Z,10.77
2023-02-05T00:32:58.099Z,9.93
2023-02-05T00:35:25.763Z,11.10
2023-02-05T00:37:57.040Z,11.82
2023-02-05T00:40:24.730Z,13.30
2023-02-05T00:42:52.405Z,10.95
2023-02-05T00:45:21.445Z,8.75
2023-02-05T00:47:49.094Z,11.27
2023-02-05T00:50:21.134Z,11.82
2023-02-05T00:52:48.795Z,10.40
2023-02-05T00:55:16.647Z,9.18
2023-02-05T00:57:44.295Z,8.60
2023-02-05T01:00:13.000Z,10.57
2023-02-05T01:02:42.103Z,10.40
2023-02-05T01:05:10.282Z,10.35
2023-02-05T01:07:38.008Z,11.07
2023-02-05T01:10:06.415Z,12.40
2023-02-05T01:12:34.254Z,14.43
2023-02-05T01:15:02.457Z,11.55
2023-02-05T01:17:30.167Z,12.73
2023-02-05T01:19:59.205Z,13.48
2023-02-05T01:22:27.079Z,9.23
2023-02-05T01:24:54.976Z,11.38
2023-02-05T01:27:22.630Z,13.82
2023-02-05T01:29:50.323Z,11.77
2023-02-05T01:32:18.331Z,11.88
2023-02-05T01:34:46.478Z,11.55
2023-02-05T01:37:15.638Z,12.93
2023-02-05T01:39:43.439Z,13.25
2023-02-05T01:42:19.332Z,10.07
2023-02-05T01:45:36.213Z,11.90
2023-02-05T01:50:37.398Z,12.52
2023-02-05T01:53:10.885Z,13.35
2023-02-05T01:55:44.810Z,13.07
2023-02-05T01:58:15.798Z,13.43
2023-02-05T02:00:44.270Z,13.25
2023-02-05T02:03:14.228Z,11.13
2023-02-05T02:05:41.941Z,12.88
2023-02-05T02:08:13.543Z,11.30
2023-02-05T02:10:44.536Z,10.55
2023-02-05T02:13:14.106Z,11.50
2023-02-05T02:15:42.674Z,11.05
2023-02-05T02:18:29.136Z,12.43
2023-02-05T02:21:20.288Z,11.43
2023-02-05T02:24:07.772Z,10.02
2023-02-05T02:26:54.524Z,12.32
2023-02-05T02:29:32.955Z,13.23
2023-02-05T02:32:04.331Z,12.13
2023-02-05T02:34:38.829Z,13.27
2023-02-05T02:37:10.731Z,13.60
2023-02-05T02:39:44.656Z,12.88
2023-02-05T02:42:16.472Z,10.45
2023-02-05T02:44:49.985Z,10.02
2023-02-05T02:47:21.749Z,11.27
2023-02-05T02:49:53.546Z,11.65
2023-02-05T02:52:22.401Z,12.60
2023-02-05T02:54:53.702Z,12.38
2023-02-05T02:57:25.078Z,12.20
2023-02-05T02:59:57.608Z,12.90
2023-02-05T03:02:27.816Z,11.32
2023-02-05T03:04:58.608Z,12.18
2023-02-05T03:07:29.555Z,11.40
2023-02-05T03:10:01.701Z,15.52
2023-02-05T03:12:29.522Z,9.88
2023-02-05T03:14:58.962Z,10.52
2023-02-05T03:17:28.558Z,11.10
2023-02-05T03:20:03.397Z,9.20
2023-02-05T03:22:31.096Z,10.95
2023-02-05T03:24:58.837Z,13.13
2023-02-05T03:27:26.542Z,10.35
2023-02-05T03:29:54.384Z,10.38
2023-02-05T03:32:36.478Z,11.27
2023-02-05T03:35:24.260Z,10.50
2023-02-05T03:38:07.092Z,12.50
2023-02-05T03:40:44.697Z,11.10
2023-02-05T03:43:17.191Z,10.95
2023-02-05T03:45:51.095Z,12.50
2023-02-05T03:48:40.418Z,10.57
2023-02-05T03:51:20.171Z,11.90
2023-02-05T03:53:56.623Z,13.20
2023-02-05T03:56:29.727Z,12.30
2023-02-05T03:58:58.991Z,11.25
2023-02-05T04:01:27.051Z,11.45
2023-02-05T04:03:56.606Z,12.90
2023-02-05T04:06:24.286Z,12.05
2023-02-05T04:08:52.011Z,12.02
2023-02-05T04:11:19.807Z,13.20
2023-02-05T04:13:47.525Z,12.38
2023-02-05T04:16:15.266Z,13.80
2023-02-05T04:18:42.977Z,11.60
2023-02-05T04:21:12.066Z,9.35
2023-02-05T04:23:39.804Z,10.18
2023-02-05T04:26:07.515Z,12.43
2023-02-05T04:28:35.699Z,13.57
2023-02-05T04:31:03.438Z,12.23
2023-02-05T04:33:31.120Z,11.00
2023-02-05T04:35:59.922Z,10.60
2023-02-05T04:38:29.540Z,13.40
2023-02-05T04:40:57.332Z,9.85
2023-02-05T04:43:27.778Z,13.85
2023-02-05T04:45:55.595Z,12.77
2023-02-05T04:48:23.319Z,11.15
2023-02-05T04:50:51.029Z,9.60
2023-02-05T04:53:18.784Z,9.95
2023-02-05T04:55:47.871Z,12.20
2023-02-05T04:58:15.536Z,12.48
2023-02-05T05:00:43.302Z,12.02
2023-02-05T05:03:11.005Z,11.50
2023-02-05T05:05:38.767Z,13.80
2023-02-05T05:08:06.626Z,11.10
2023-02-05T05:10:34.340Z,12.90
2023-02-05T05:13:03.419Z,10.80
2023-02-05T05:15:31.133Z,11.32
2023-02-05T05:17:58.911Z,11.48
2023-02-05T05:20:26.636Z,9.90
2023-02-05T05:22:54.406Z,9.95
2023-02-05T05:25:22.139Z,12.18
2023-02-05T05:27:50.331Z,8.95
2023-02-05T05:30:19.885Z,10.55
2023-02-05T05:32:47.635Z,10.23
2023-02-05T05:35:18.668Z,11.40
2023-02-05T05:37:46.361Z,10.15
2023-02-05T05:40:31.664Z,10.93
2023-02-05T05:43:16.934Z,10.65
2023-02-05T05:45:46.106Z,11.45
2023-02-05T05:48:13.849Z,9.80
2023-02-05T05:50:41.673Z,10.98
2023-02-05T05:53:09.439Z,11.38
2023-02-05T05:55:40.110Z,9.48
2023-02-05T05:58:07.844Z,11.45
2023-02-05T06:00:35.712Z,9.65
2023-02-05T06:03:05.247Z,8.13
2023-02-05T06:05:33.526Z,11.35
2023-02-05T06:08:01.479Z,7.78
2023-02-05T06:10:29.321Z,9.60
2023-02-05T06:12:57.804Z,9.70
2023-02-05T06:15:26.705Z,10.00
2023-02-05T06:17:54.767Z,10.25
2023-02-05T06:20:24.227Z,9.52
2023-02-05T06:22:52.551Z,10.88
2023-02-05T06:25:20.484Z,9.65
2023-02-05T06:27:48.212Z,10.25
2023-02-05T06:30:16.036Z,11.55
2023-02-05T06:32:43.760Z,12.60
2023-02-05T06:35:11.567Z,9.55
2023-02-05T06:37:48.072Z,8.55
2023-02-05T06:40:18.062Z,11.25
2023-02-05T06:42:46.432Z,10.38
2023-02-05T06:45:14.128Z,9.45
2023-02-05T06:47:41.875Z,8.82
2023-02-05T06:50:10.231Z,8.70
2023-02-05T06:52:39.083Z,9.52
2023-02-05T06:55:08.674Z,9.70
2023-02-05T06:57:36.423Z,9.32
2023-02-05T07:00:05.521Z,8.63
2023-02-05T07:02:33.697Z,10.65
2023-02-05T07:05:01.504Z,11.00
2023-02-05T07:07:29.286Z,9.00
2023-02-05T07:09:57.022Z,9.52
2023-02-05T07:12:26.176Z,9.55
2023-02-05T07:14:53.918Z,11.93
2023-02-05T07:17:21.938Z,10.05
2023-02-05T07:19:49.750Z,11.60
2023-02-05T07:22:17.527Z,9.48
2023-02-05T07:24:45.337Z,8.70
2023-02-05T07:27:13.060Z,10.65
2023-02-05T07:29:42.170Z,9.43
2023-02-05T07:32:10.093Z,9.48
2023-02-05T07:34:38.069Z,10.20
2023-02-05T07:37:05.931Z,9.13
2023-02-05T07:39:34.388Z,10.18
2023-02-05T07:42:02.233Z,8.88
2023-02-05T07:44:29.951Z,7.55
2023-02-05T07:46:59.058Z,8.40
2023-02-05T07:49:26.873Z,7.50
2023-02-05T07:51:54.585Z,8.40
2023-02-05T07:54:22.373Z,10.02
2023-02-05T07:56:50.076Z,9.95
2023-02-05T07:59:17.800Z,11.65
2023-02-05T08:01:45.574Z,10.50
2023-02-05T08:04:14.734Z,11.40
2023-02-05T08:06:43.122Z,9.43
2023-02-05T08:09:11.664Z,11.70
2023-02-05T08:11:39.567Z,9.27
2023-02-05T08:14:07.321Z,11.57
2023-02-05T08:16:35.070Z,9.98
2023-02-05T08:19:02.827Z,11.05
2023-02-05T08:21:31.927Z,14.60
2023-02-05T08:24:01.012Z,12.52
2023-02-05T08:26:28.819Z,16.15
2023-02-05T08:28:56.630Z,12.45
2023-02-05T08:31:24.400Z,12.00
2023-02-05T08:33:54.757Z,13.00
2023-02-05T08:36:22.726Z,16.60
2023-02-05T08:38:51.841Z,14.63
2023-02-05T08:41:19.708Z,13.27
2023-02-05T08:43:49.186Z,15.45
2023-02-05T08:46:20.180Z,15.73
2023-02-05T08:48:48.436Z,13.65
2023-02-05T08:51:17.470Z,13.70
2023-02-05T08:53:45.242Z,12.65
2023-02-05T08:56:15.566Z,15.55
2023-02-05T08:58:43.494Z,12.05
2023-02-05T09:01:14.206Z,12.55
2023-02-05T09:03:42.368Z,9.88
2023-02-05T09:06:12.497Z,10.45
2023-02-05T09:08:40.294Z,10.88
2023-02-05T09:11:08.738Z,12.57
2023-02-05T09:13:37.890Z,9.20
2023-02-05T09:16:06.254Z,10.60
2023-02-05T09:18:33.969Z,12.55
2023-02-05T09:21:01.693Z,11.02
2023-02-05T09:23:29.986Z,11.32
2023-02-05T09:25:59.830Z,11.05
2023-02-05T09:28:27.617Z,10.77
2023-02-05T09:30:56.954Z,15.25
2023-02-05T09:33:24.745Z,9.63
2023-02-05T09:35:52.477Z,10.02
2023-02-05T09:38:20.169Z,9.52
2023-02-05T09:40:57.480Z,11.60
2023-02-05T09:43:44.936Z,12.30
2023-02-05T09:46:21.201Z,11.82
2023-02-05T09:48:54.812Z,11.18
2023-02-05T09:51:33.194Z,9.07
2023-02-05T09:54:07.634Z,9.85
2023-02-05T09:56:37.015Z,8.93
2023-02-05T09:59:06.530Z,10.90
2023-02-05T10:01:44.394Z,11.07
2023-02-05T10:04:12.461Z,8.52
2023-02-05T10:06:56.852Z,11.10
2023-02-05T10:09:51.462Z,9.55
2023-02-05T10:12:28.355Z,12.45
2023-02-05T10:15:14.774Z,8.07
2023-02-05T10:17:56.513Z,9.35
2023-02-05T10:20:42.350Z,8.32
2023-02-05T10:23:16.596Z,9.13
2023-02-05T10:26:00.179Z,11.25
2023-02-05T10:28:44.306Z,21.95
2023-02-05T10:31:23.718Z,10.98
2023-02-05T10:33:56.169Z,8.68
2023-02-05T10:36:26.235Z,11.30
2023-02-05T10:38:56.999Z,11.10
2023-02-05T10:41:31.254Z,8.98
2023-02-05T10:44:05.904Z,8.90
2023-02-05T10:46:36.432Z,7.03
2023-02-05T10:49:14.560Z,6.63
2023-02-05T10:51:43.977Z,5.50
2023-02-05T10:54:20.324Z,5.38
2023-02-05T10:56:48.951Z,9.63
2023-02-05T10:59:22.792Z,5.72
2023-02-05T11:01:51.800Z,8.82
2023-02-05T11:04:26.815Z,7.60
2023-02-05T11:06:54.983Z,8.82
2023-02-05T11:09:32.243Z,8.90
2023-02-05T11:12:01.953Z,9.25
2023-02-05T11:14:34.126Z,7.85
2023-02-05T11:17:08.453Z,5.25
2023-02-05T11:19:38.731Z,6.20
2023-02-05T11:22:09.469Z,10.40
2023-02-05T11:24:39.677Z,8.02
2023-02-05T11:27:26.727Z,10.88
2023-02-05T11:29:56.774Z,8.23
2023-02-05T11:32:34.182Z,7.57
2023-02-05T11:35:26.993Z,11.88
2023-02-05T11:38:01.684Z,4.65
2023-02-05T11:40:33.185Z,13.18
2023-02-05T11:43:05.114Z,7.88
2023-02-05T11:45:35.471Z,7.20
2023-02-05T11:48:08.702Z,9.57
2023-02-05T11:50:38.484Z,10.63
2023-02-05T11:53:14.458Z,9.32
2023-02-05T11:55:43.032Z,9.25
2023-02-05T11:58:34.843Z,9.18
2023-02-05T12:01:06.997Z,12.55
2023-02-05T12:03:36.606Z,6.60
2023-02-05T12:06:18.813Z,8.63
2023-02-05T12:08:51.031Z,9.45
2023-02-05T12:11:28.290Z,10.82
2023-02-05T12:14:05.472Z,10.80
2023-02-05T12:16:48.627Z,7.82
2023-02-05T12:19:22.299Z,14.07
2023-02-05T12:22:00.541Z,14.80
2023-02-05T12:24:56.593Z,10.73
2023-02-05T12:27:40.175Z,11.23
2023-02-05T12:30:27.779Z,8.80
2023-02-05T12:33:06.841Z,7.35
2023-02-05T12:35:48.903Z,7.57
2023-02-05T12:38:32.422Z,9.80
2023-02-05T12:41:14.209Z,10.45
2023-02-05T12:43:47.812Z,7.65
2023-02-05T12:46:37.103Z,11.63
2023-02-05T12:49:19.799Z,12.75
2023-02-05T12:52:01.211Z,16.23
2023-02-05T12:54:46.630Z,15.88
2023-02-05T12:57:19.970Z,20.05
2023-02-05T12:59:51.784Z,9.70
2023-02-05T13:02:27.305Z,88.25
2023-02-05T13:07:36.201Z,18.75
2023-02-05T13:10:07.960Z,28.02
2023-02-05T13:12:40.285Z,61.22
2023-02-05T13:15:17.722Z,13.07
2023-02-05T13:17:55.621Z,15.57
2023-02-05T13:20:47.043Z,25.27
2023-02-05T13:23:34.258Z,11.82
2023-02-05T13:26:23.715Z,16.90
2023-02-05T13:28:55.261Z,16.80
2023-02-05T13:31:31.308Z,15.80
2023-02-05T13:34:05.121Z,22.48
2023-02-05T13:37:11.153Z,19.65
2023-02-05T13:40:08.065Z,16.90
2023-02-05T13:43:15.533Z,15.32
2023-02-05T13:46:20.090Z,14.70
2023-02-05T13:49:20.781Z,19.60
2023-02-05T13:52:07.571Z,14.45
2023-02-05T13:55:09.051Z,17.92
2023-02-05T13:58:12.853Z,15.05
2023-02-05T14:00:43.421Z,13.90
2023-02-05T14:03:27.113Z,18.63
2023-02-05T14:05:55.042Z,17.95
2023-02-05T14:08:26.402Z,14.23
2023-02-05T14:11:00.262Z,19.95
2023-02-05T14:13:33.607Z,19.70
2023-02-05T14:16:34.289Z,18.55
2023-02-05T14:19:15.222Z,26.80
2023-02-05T14:21:58.179Z,21.30
2023-02-05T14:24:40.314Z,21.52
2023-02-05T14:27:41.945Z,19.67
2023-02-05T14:30:46.154Z,19.77
2023-02-05T14:33:36.171Z,22.77
2023-02-05T14:36:36.767Z,21.05
2023-02-05T14:39:18.702Z,22.77
2023-02-05T14:41:51.937Z,20.70
2023-02-05T14:44:24.999Z,15.40
2023-02-05T14:47:05.331Z,17.20
2023-02-05T14:49:43.241Z,18.98
2023-02-05T14:52:28.070Z,17.25
2023-02-05T14:55:00.336Z,79.53
2023-02-05T14:57:35.860Z,25.10
2023-02-05T15:03:00.750Z,17.38
2023-02-05T15:05:36.176Z,20.05
2023-02-05T15:08:12.157Z,15.88
2023-02-05T15:10:49.927Z,18.88
2023-02-05T15:13:20.078Z,66.68
2023-02-05T15:16:22.463Z,14.48
2023-02-05T15:18:54.014Z,14.50
2023-02-05T15:21:26.390Z,17.38
2023-02-05T15:24:01.728Z,20.80
2023-02-05T15:26:40.686Z,18.05
2023-02-05T15:29:14.953Z,20.83
2023-02-05T15:31:47.630Z,16.15
2023-02-05T15:34:30.875Z,23.90
2023-02-05T15:37:04.518Z,19.10
2023-02-05T15:39:43.338Z,18.30
2023-02-05T15:42:17.226Z,16.52
2023-02-05T15:44:45.016Z,23.13
2023-02-05T15:47:19.680Z,13.48
2023-02-05T15:49:52.696Z,26.35
2023-02-05T15:52:23.575Z,16.50
2023-02-05T15:54:52.873Z,19.75
2023-02-05T15:57:24.236Z,17.42
2023-02-05T15:59:54.036Z,20.85
2023-02-05T16:02:24.054Z,25.73
2023-02-05T16:04:58.627Z,17.63
2023-02-05T16:07:29.424Z,25.80
2023-02-05T16:09:59.663Z,18.17
2023-02-05T16:12:30.461Z,16.70
2023-02-05T16:15:02.362Z,21.67
2023-02-05T16:17:36.692Z,20.70
2023-02-05T16:20:17.598Z,23.58
2023-02-05T16:22:48.864Z,23.85
2023-02-05T16:25:27.962Z,22.73
2023-02-05T16:27:57.082Z,30.45
2023-02-05T16:30:34.928Z,28.77
2023-02-05T16:33:05.061Z,13.13
2023-02-05T16:35:38.518Z,20.83
2023-02-05T16:38:09.209Z,23.35
2023-02-05T16:40:40.897Z,28.00
2023-02-05T16:43:22.060Z,26.58
2023-02-05T16:46:23.969Z,29.63
2023-02-05T16:48:53.702Z,30.10
2023-02-05T16:51:35.474Z,34.42
2023-02-05T16:54:29.769Z,32.25
2023-02-05T16:57:03.194Z,25.30
2023-02-05T16:59:34.812Z,27.80
2023-02-05T17:02:03.484Z,32.88
2023-02-05T17:04:34.676Z,37.50
2023-02-05T17:07:07.207Z,36.60
2023-02-05T17:09:37.235Z,30.20
2023-02-05T17:12:41.466Z,31.20
2023-02-05T17:15:37.492Z,34.88
2023-02-05T17:18:23.720Z,38.47
2023-02-05T17:20:51.500Z,26.00
2023-02-05T17:23:20.625Z,31.05
2023-02-05T17:25:55.092Z,35.90
2023-02-05T17:28:25.865Z,28.27
2023-02-05T17:30:55.166Z,35.60
2023-02-05T17:33:24.760Z,29.17
2023-02-05T17:35:52.748Z,34.50
2023-02-05T17:38:23.552Z,30.48
2023-02-05T17:41:11.481Z,39.35
2023-02-05T17:43:39.573Z,36.47
2023-02-05T17:46:12.802Z,37.17
2023-02-05T17:48:40.652Z,30.02
2023-02-05T17:51:12.290Z,30.25
2023-02-05T17:53:44.004Z,35.63
2023-02-05T17:56:13.204Z,41.47
2023-02-05T17:58:41.771Z,43.42
2023-02-05T18:01:11.817Z,34.38
2023-02-05T18:03:39.726Z,53.22
2023-02-05T18:06:07.573Z,49.03
2023-02-05T18:08:37.113Z,37.15
2023-02-05T18:11:06.482Z,35.95
2023-02-05T18:13:36.706Z,31.02
2023-02-05T18:16:05.038Z,40.63
2023-02-05T18:18:35.777Z,34.60
2023-02-05T18:21:03.499Z,32.25
2023-02-05T18:23:31.390Z,38.60
2023-02-05T18:26:00.220Z,34.50
2023-02-05T18:28:29.679Z,34.40
2023-02-05T18:30:59.093Z,31.83
2023-02-05T18:33:26.998Z,42.50
2023-02-05T18:35:55.194Z,40.67
2023-02-05T18:38:23.474Z,39.72
2023-02-05T18:40:51.493Z,35.55
2023-02-05T18:43:19.363Z,41.33
2023-02-05T18:45:48.462Z,46.58
2023-02-05T18:48:18.278Z,39.00
2023-02-05T18:50:45.982Z,40.70
2023-02-05T18:53:13.711Z,36.72
2023-02-05T18:55:41.398Z,41.42
2023-02-05T18:58:09.086Z,37.47
2023-02-05T19:00:37.477Z,30.23
2023-02-05T19:03:06.727Z,37.15
2023-02-05T19:05:35.751Z,40.33
2023-02-05T19:08:06.266Z,37.70
2023-02-05T19:10:34.429Z,36.67
2023-02-05T19:13:02.308Z,36.15
2023-02-05T19:15:31.593Z,37.88
2023-02-05T19:17:59.304Z,34.70
2023-02-05T19:20:28.367Z,39.83
2023-02-05T19:22:56.064Z,40.10
2023-02-05T19:25:24.059Z,39.80
2023-02-05T19:27:53.127Z,32.85
2023-02-05T19:30:20.970Z,47.33
2023-02-05T19:32:48.717Z,44.38
2023-02-05T19:35:16.486Z,41.60
2023-02-05T19:37:45.561Z,35.67
2023-02-05T19:40:15.271Z,35.00
2023-02-05T19:42:44.596Z,42.65
2023-02-05T19:45:12.383Z,41.35
2023-02-05T19:47:40.087Z,39.42
2023-02-05T19:50:08.614Z,47.08
2023-02-05T19:52:39.350Z,38.08
2023-02-05T19:55:09.032Z,39.42
2023-02-05T19:57:36.726Z,49.60
2023-02-05T20:00:05.265Z,42.92
2023-02-05T20:02:35.363Z,53.25
2023-02-05T20:05:03.120Z,44.38
2023-02-05T20:07:33.829Z,41.17
2023-02-05T20:10:01.678Z,44.60
2023-02-05T20:12:30.749Z,44.47
2023-02-05T20:14:58.514Z,40.72
2023-02-05T20:17:26.304Z,39.92
2023-02-05T20:20:02.559Z,35.88
2023-02-05T20:22:36.862Z,35.08
2023-02-05T20:25:04.972Z,37.50
2023-02-05T20:27:34.021Z,37.78
2023-02-05T20:30:18.925Z,35.45
2023-02-05T20:32:46.646Z,36.73
2023-02-05T20:35:14.340Z,35.25
2023-02-05T20:37:42.087Z,37.83
2023-02-05T20:40:11.055Z,37.67
2023-02-05T20:42:40.145Z,39.70
2023-02-05T20:45:08.676Z,34.38
2023-02-05T20:47:36.459Z,34.70
2023-02-05T20:50:04.265Z,34.83
2023-02-05T20:52:32.030Z,36.53
2023-02-05T20:54:59.798Z,35.50
2023-02-05T20:57:27.557Z,40.80
2023-02-05T20:59:56.635Z,39.13
2023-02-05T21:02:24.408Z,38.85
2023-02-05T21:04:52.816Z,34.20
2023-02-05T21:07:25.081Z,36.47
2023-02-05T21:09:53.531Z,43.30
2023-02-05T21:12:21.273Z,34.72
2023-02-05T21:14:51.514Z,33.90
2023-02-05T21:17:20.580Z,38.95
2023-02-05T21:19:48.269Z,38.20
2023-02-05T21:22:15.979Z,36.03
2023-02-05T21:24:43.720Z,34.88
2023-02-05T21:27:11.946Z,37.90
2023-02-05T21:29:39.632Z,33.65
2023-02-05T21:32:08.069Z,31.48
2023-02-05T21:34:37.117Z,36.03
2023-02-05T21:37:04.788Z,35.40
2023-02-05T21:39:32.968Z,27.55
2023-02-05T21:42:06.645Z,27.73
2023-02-05T21:44:34.317Z,25.50
2023-02-05T21:47:02.006Z,28.48
2023-02-05T21:49:29.705Z,27.17
2023-02-05T21:51:58.779Z,25.45
2023-02-05T21:54:26.471Z,20.83
2023-02-05T21:56:54.131Z,18.77
2023-02-05T21:59:23.544Z,22.75
2023-02-05T22:01:51.323Z,20.98
2023-02-05T22:04:21.909Z,15.43
2023-02-05T22:06:51.249Z,15.82
2023-02-05T22:09:20.585Z,17.27
2023-02-05T22:11:50.376Z,18.95
2023-02-05T22:14:18.111Z,16.92
2023-02-05T22:16:46.040Z,20.92
2023-02-05T22:19:13.893Z,19.00
2023-02-05T22:21:43.485Z,18.63
2023-02-05T22:24:15.102Z,19.98
2023-02-05T22:26:45.199Z,17.08
2023-02-05T22:29:16.430Z,17.35
2023-02-05T22:31:46.326Z,20.35
2023-02-05T22:34:14.075Z,20.80
2023-02-05T22:36:41.832Z,20.98
2023-02-05T22:39:09.631Z,17.67
2023-02-05T22:41:39.294Z,17.15
2023-02-05T22:44:10.002Z,20.55
2023-02-05T22:46:42.469Z,19.17
2023-02-05T22:49:15.113Z,19.10
2023-02-05T22:51:45.588Z,22.98
2023-02-05T22:54:14.676Z,21.10
2023-02-05T23:01:25.697Z,19.90
2023-02-05T23:03:56.120Z,20.40
2023-02-05T23:06:25.515Z,20.42
2023-02-05T23:08:55.044Z,18.95
2023-02-05T23:11:23.216Z,18.08
2023-02-05T23:13:50.968Z,19.25
2023-02-05T23:16:20.598Z,17.38
2023-02-05T23:18:50.522Z,17.83
2023-02-05T23:21:20.566Z,17.65
2023-02-05T23:23:49.566Z,19.35
2023-02-05T23:26:19.547Z,18.02
2023-02-05T23:28:47.770Z,22.55
2023-02-05T23:31:16.203Z,16.13
2023-02-05T23:33:44.096Z,19.45
2023-02-05T23:36:13.223Z,19.80
2023-02-05T23:38:41.316Z,20.35
2023-02-05T23:41:09.315Z,21.13
2023-02-05T23:43:38.242Z,19.38
2023-02-05T23:46:08.903Z,22.80
2023-02-05T23:48:36.765Z,18.80
2023-02-05T23:51:04.603Z,21.13
2023-02-05T23:53:33.629Z,19.10
2023-02-05T23:56:03.717Z,22.23
2023-02-05T23:58:31.397Z,23.40
